sensor_id;sensor_type;location;lat;lon;timestamp;P1;durP1;ratioP1;P2;durP2;ratioP2
47381;SDS011;33128;51.580;5.170;2023-05-16T00:01:05;1999.90;;;999.90;;
47381;SDS011;33128;51.580;5.170;2023-05-16T00:03:32;1999.90;;;999.90;;
47381;SDS011;33128;51.580;5.170;2023-05-16T00:05:58;1999.90;;;999.90;;
47381;SDS011;33128;51.580;5.170;2023-05-16T00:08:26;1999.90;;;999.90;;
47381;SDS011;33128;51.580;5.170;2023-05-16T00:10:52;1999.90;;;999.90;;
47381;SDS011;33128;51.580;5.170;2023-05-16T00:13:18;1999.90;;;999.90;;
47381;SDS011;33128;51.580;5.170;2023-05-16T00:15:50;1999.90;;;999.90;;
47381;SDS011;33128;51.580;5.170;2023-05-16T00:18:17;1999.90;;;999.90;;
47381;SDS011;33128;51.580;5.170;2023-05-16T00:20:43;1999.90;;;999.90;;
47381;SDS011;33128;51.580;5.170;2023-05-16T00:23:09;1999.90;;;999.90;;
47381;SDS011;33128;51.580;5.170;2023-05-16T00:25:35;1999.90;;;999.90;;
47381;SDS011;33128;51.580;5.170;2023-05-16T00:28:01;1999.90;;;999.90;;
47381;SDS011;33128;51.580;5.170;2023-05-16T00:30:27;1999.90;;;999.90;;
47381;SDS011;33128;51.580;5.170;2023-05-16T00:32:53;1999.90;;;999.90;;
47381;SDS011;33128;51.580;5.170;2023-05-16T00:35:19;1999.90;;;999.90;;
47381;SDS011;33128;51.580;5.170;2023-05-16T00:37:45;1999.90;;;999.90;;
47381;SDS011;33128;51.580;5.170;2023-05-16T00:40:11;1999.90;;;999.90;;
47381;SDS011;33128;51.580;5.170;2023-05-16T00:42:37;1999.90;;;999.90;;
47381;SDS011;33128;51.580;5.170;2023-05-16T00:45:04;1999.90;;;999.90;;
47381;SDS011;33128;51.580;5.170;2023-05-16T00:47:31;1999.90;;;999.90;;
47381;SDS011;33128;51.580;5.170;2023-05-16T00:49:56;1999.90;;;999.90;;
47381;SDS011;33128;51.580;5.170;2023-05-16T00:52:22;1999.90;;;999.90;;
47381;SDS011;33128;51.580;5.170;2023-05-16T00:54:49;1999.90;;;999.90;;
47381;SDS011;33128;51.580;5.170;2023-05-16T00:57:15;1999.90;;;999.90;;
47381;SDS011;33128;51.580;5.170;2023-05-16T00:59:42;1999.90;;;999.90;;
47381;SDS011;33128;51.580;5.170;2023-05-16T01:02:10;1999.90;;;999.90;;
47381;SDS011;33128;51.580;5.170;2023-05-16T01:04:36;1999.90;;;999.90;;
47381;SDS011;33128;51.580;5.170;2023-05-16T01:07:03;1999.90;;;999.90;;
47381;SDS011;33128;51.580;5.170;2023-05-16T01:09:29;1999.90;;;999.90;;
47381;SDS011;33128;51.580;5.170;2023-05-16T01:17:15;1999.90;;;999.90;;
47381;SDS011;33128;51.580;5.170;2023-05-16T01:22:28;1999.90;;;999.90;;
47381;SDS011;33128;51.580;5.170;2023-05-16T01:27:46;1999.90;;;999.90;;
47381;SDS011;33128;51.580;5.170;2023-05-16T01:30:16;1999.90;;;999.90;;
47381;SDS011;33128;51.580;5.170;2023-05-16T01:32:43;1999.90;;;999.90;;
47381;SDS011;33128;51.580;5.170;2023-05-16T01:35:10;1999.90;;;999.90;;
47381;SDS011;33128;51.580;5.170;2023-05-16T01:37:47;1999.90;;;999.90;;
47381;SDS011;33128;51.580;5.170;2023-05-16T01:40:31;1999.90;;;999.90;;
47381;SDS011;33128;51.580;5.170;2023-05-16T01:43:10;1999.90;;;999.90;;
47381;SDS011;33128;51.580;5.170;2023-05-16T01:45:38;1999.90;;;999.90;;
47381;SDS011;33128;51.580;5.170;2023-05-16T01:48:19;1999.90;;;999.90;;
47381;SDS011;33128;51.580;5.170;2023-05-16T01:50:50;1999.90;;;999.90;;
47381;SDS011;33128;51.580;5.170;2023-05-16T01:53:21;1999.90;;;999.90;;
47381;SDS011;33128;51.580;5.170;2023-05-16T01:55:52;1999.90;;;999.90;;
47381;SDS011;33128;51.580;5.170;2023-05-16T01:58:21;1999.90;;;999.90;;
47381;SDS011;33128;51.580;5.170;2023-05-16T02:00:53;1999.90;;;999.90;;
47381;SDS011;33128;51.580;5.170;2023-05-16T02:03:24;1999.90;;;999.90;;
47381;SDS011;33128;51.580;5.170;2023-05-16T02:05:49;1999.90;;;999.90;;
47381;SDS011;33128;51.580;5.170;2023-05-16T02:08:15;1999.90;;;999.90;;
47381;SDS011;33128;51.580;5.170;2023-05-16T02:10:40;1999.90;;;999.90;;
47381;SDS011;33128;51.580;5.170;2023-05-16T02:13:06;1999.90;;;999.90;;
47381;SDS011;33128;51.580;5.170;2023-05-16T02:15:32;1999.90;;;999.90;;
47381;SDS011;33128;51.580;5.170;2023-05-16T02:17:57;1999.90;;;999.90;;
47381;SDS011;33128;51.580;5.170;2023-05-16T02:20:23;1999.90;;;999.90;;
47381;SDS011;33128;51.580;5.170;2023-05-16T02:22:49;1999.90;;;999.90;;
47381;SDS011;33128;51.580;5.170;2023-05-16T02:25:15;1999.90;;;999.90;;
47381;SDS011;33128;51.580;5.170;2023-05-16T02:27:41;1999.90;;;999.90;;
47381;SDS011;33128;51.580;5.170;2023-05-16T02:30:09;1999.90;;;999.90;;
47381;SDS011;33128;51.580;5.170;2023-05-16T02:32:35;1999.90;;;999.90;;
47381;SDS011;33128;51.580;5.170;2023-05-16T02:35:03;1999.90;;;999.90;;
47381;SDS011;33128;51.580;5.170;2023-05-16T02:37:29;1999.90;;;999.90;;
47381;SDS011;33128;51.580;5.170;2023-05-16T02:39:54;1999.90;;;999.90;;
47381;SDS011;33128;51.580;5.170;2023-05-16T02:42:20;1999.90;;;999.90;;
47381;SDS011;33128;51.580;5.170;2023-05-16T02:44:45;1999.90;;;999.90;;
47381;SDS011;33128;51.580;5.170;2023-05-16T02:47:11;1999.90;;;999.90;;
47381;SDS011;33128;51.580;5.170;2023-05-16T02:49:36;1999.90;;;999.90;;
47381;SDS011;33128;51.580;5.170;2023-05-16T02:52:02;1999.90;;;999.90;;
47381;SDS011;33128;51.580;5.170;2023-05-16T02:54:28;1999.90;;;999.90;;
47381;SDS011;33128;51.580;5.170;2023-05-16T02:56:53;1999.90;;;999.90;;
47381;SDS011;33128;51.580;5.170;2023-05-16T02:59:19;1999.90;;;999.90;;
47381;SDS011;33128;51.580;5.170;2023-05-16T03:01:44;1999.90;;;999.90;;
47381;SDS011;33128;51.580;5.170;2023-05-16T03:04:10;1999.90;;;999.90;;
47381;SDS011;33128;51.580;5.170;2023-05-16T03:06:36;1999.90;;;999.90;;
47381;SDS011;33128;51.580;5.170;2023-05-16T03:09:01;1999.90;;;999.90;;
47381;SDS011;33128;51.580;5.170;2023-05-16T03:11:27;1999.90;;;999.90;;
47381;SDS011;33128;51.580;5.170;2023-05-16T03:13:53;1999.90;;;999.90;;
47381;SDS011;33128;51.580;5.170;2023-05-16T03:16:18;1999.90;;;999.90;;
47381;SDS011;33128;51.580;5.170;2023-05-16T03:18:44;1999.90;;;999.90;;
47381;SDS011;33128;51.580;5.170;2023-05-16T03:21:10;1999.90;;;999.90;;
47381;SDS011;33128;51.580;5.170;2023-05-16T03:23:35;1999.90;;;999.90;;
47381;SDS011;33128;51.580;5.170;2023-05-16T03:26:01;1999.90;;;999.90;;
47381;SDS011;33128;51.580;5.170;2023-05-16T03:28:27;1999.90;;;999.90;;
47381;SDS011;33128;51.580;5.170;2023-05-16T03:30:52;1999.90;;;999.90;;
47381;SDS011;33128;51.580;5.170;2023-05-16T03:33:18;1999.90;;;999.90;;
47381;SDS011;33128;51.580;5.170;2023-05-16T03:35:43;1999.90;;;999.90;;
47381;SDS011;33128;51.580;5.170;2023-05-16T03:38:10;1999.90;;;999.90;;
47381;SDS011;33128;51.580;5.170;2023-05-16T03:40:36;1999.90;;;999.90;;
47381;SDS011;33128;51.580;5.170;2023-05-16T03:43:01;1999.90;;;999.90;;
47381;SDS011;33128;51.580;5.170;2023-05-16T03:45:28;1999.90;;;999.90;;
47381;SDS011;33128;51.580;5.170;2023-05-16T03:47:55;1999.90;;;999.90;;
47381;SDS011;33128;51.580;5.170;2023-05-16T03:50:21;1999.90;;;999.90;;
47381;SDS011;33128;51.580;5.170;2023-05-16T03:52:46;1999.90;;;999.90;;
47381;SDS011;33128;51.580;5.170;2023-05-16T03:55:12;1999.90;;;999.90;;
47381;SDS011;33128;51.580;5.170;2023-05-16T03:57:39;1999.90;;;999.90;;
47381;SDS011;33128;51.580;5.170;2023-05-16T04:00:06;1999.90;;;999.90;;
47381;SDS011;33128;51.580;5.170;2023-05-16T04:02:32;1999.90;;;999.90;;
47381;SDS011;33128;51.580;5.170;2023-05-16T04:04:58;1999.90;;;999.90;;
47381;SDS011;33128;51.580;5.170;2023-05-16T04:07:24;1999.90;;;999.90;;
47381;SDS011;33128;51.580;5.170;2023-05-16T04:09:50;1999.90;;;999.90;;
47381;SDS011;33128;51.580;5.170;2023-05-16T04:12:18;1999.90;;;999.90;;
47381;SDS011;33128;51.580;5.170;2023-05-16T04:14:47;1999.90;;;999.90;;
47381;SDS011;33128;51.580;5.170;2023-05-16T04:17:15;1999.90;;;999.90;;
47381;SDS011;33128;51.580;5.170;2023-05-16T04:19:40;1999.90;;;999.90;;
47381;SDS011;33128;51.580;5.170;2023-05-16T04:22:06;1999.90;;;999.90;;
47381;SDS011;33128;51.580;5.170;2023-05-16T04:24:32;1999.90;;;999.90;;
47381;SDS011;33128;51.580;5.170;2023-05-16T04:26:57;1999.90;;;999.90;;
47381;SDS011;33128;51.580;5.170;2023-05-16T04:29:23;1999.90;;;999.90;;
47381;SDS011;33128;51.580;5.170;2023-05-16T04:31:49;1999.90;;;999.90;;
47381;SDS011;33128;51.580;5.170;2023-05-16T04:34:15;1999.90;;;999.90;;
47381;SDS011;33128;51.580;5.170;2023-05-16T04:36:40;1999.90;;;999.90;;
47381;SDS011;33128;51.580;5.170;2023-05-16T04:39:07;1999.90;;;999.90;;
47381;SDS011;33128;51.580;5.170;2023-05-16T04:41:33;1999.90;;;999.90;;
47381;SDS011;33128;51.580;5.170;2023-05-16T04:44:00;1999.90;;;999.90;;
47381;SDS011;33128;51.580;5.170;2023-05-16T04:46:29;1999.90;;;999.90;;
47381;SDS011;33128;51.580;5.170;2023-05-16T04:48:55;1999.90;;;999.90;;
47381;SDS011;33128;51.580;5.170;2023-05-16T04:51:21;1999.90;;;999.90;;
47381;SDS011;33128;51.580;5.170;2023-05-16T04:53:47;1999.90;;;999.90;;
47381;SDS011;33128;51.580;5.170;2023-05-16T04:56:12;1999.90;;;999.90;;
47381;SDS011;33128;51.580;5.170;2023-05-16T04:58:38;1999.90;;;999.90;;
47381;SDS011;33128;51.580;5.170;2023-05-16T05:01:03;1999.90;;;999.90;;
47381;SDS011;33128;51.580;5.170;2023-05-16T05:03:29;1999.90;;;999.90;;
47381;SDS011;33128;51.580;5.170;2023-05-16T05:05:55;1999.90;;;999.90;;
47381;SDS011;33128;51.580;5.170;2023-05-16T05:08:20;1999.90;;;999.90;;
47381;SDS011;33128;51.580;5.170;2023-05-16T05:10:46;1999.90;;;999.90;;
47381;SDS011;33128;51.580;5.170;2023-05-16T05:13:12;1999.90;;;999.90;;
47381;SDS011;33128;51.580;5.170;2023-05-16T05:15:38;1999.90;;;999.90;;
47381;SDS011;33128;51.580;5.170;2023-05-16T05:18:03;1999.90;;;999.90;;
47381;SDS011;33128;51.580;5.170;2023-05-16T05:20:29;1999.90;;;999.90;;
47381;SDS011;33128;51.580;5.170;2023-05-16T05:22:55;1999.90;;;999.90;;
47381;SDS011;33128;51.580;5.170;2023-05-16T05:25:20;1999.90;;;999.90;;
47381;SDS011;33128;51.580;5.170;2023-05-16T05:27:46;1999.90;;;999.90;;
47381;SDS011;33128;51.580;5.170;2023-05-16T05:30:12;1999.90;;;999.90;;
47381;SDS011;33128;51.580;5.170;2023-05-16T05:32:38;1999.90;;;999.90;;
47381;SDS011;33128;51.580;5.170;2023-05-16T05:35:03;1999.90;;;999.90;;
47381;SDS011;33128;51.580;5.170;2023-05-16T05:37:30;1999.90;;;999.90;;
47381;SDS011;33128;51.580;5.170;2023-05-16T05:39:55;1999.90;;;999.90;;
47381;SDS011;33128;51.580;5.170;2023-05-16T05:42:21;1999.90;;;999.90;;
47381;SDS011;33128;51.580;5.170;2023-05-16T05:44:47;1999.90;;;999.90;;
47381;SDS011;33128;51.580;5.170;2023-05-16T05:47:12;1999.90;;;999.90;;
47381;SDS011;33128;51.580;5.170;2023-05-16T05:49:39;1999.90;;;999.90;;
47381;SDS011;33128;51.580;5.170;2023-05-16T05:52:04;1999.90;;;999.90;;
47381;SDS011;33128;51.580;5.170;2023-05-16T05:54:30;1999.90;;;999.90;;
47381;SDS011;33128;51.580;5.170;2023-05-16T05:56:57;1999.90;;;999.90;;
47381;SDS011;33128;51.580;5.170;2023-05-16T05:59:22;1999.90;;;999.90;;
47381;SDS011;33128;51.580;5.170;2023-05-16T06:01:48;1999.90;;;999.90;;
47381;SDS011;33128;51.580;5.170;2023-05-16T06:04:17;1999.90;;;999.90;;
47381;SDS011;33128;51.580;5.170;2023-05-16T06:06:45;1999.90;;;999.90;;
47381;SDS011;33128;51.580;5.170;2023-05-16T06:09:12;1999.90;;;999.90;;
47381;SDS011;33128;51.580;5.170;2023-05-16T06:11:39;1999.90;;;999.90;;
47381;SDS011;33128;51.580;5.170;2023-05-16T06:14:05;1999.90;;;999.90;;
47381;SDS011;33128;51.580;5.170;2023-05-16T06:16:31;1999.90;;;999.90;;
47381;SDS011;33128;51.580;5.170;2023-05-16T06:18:57;1999.90;;;999.90;;
47381;SDS011;33128;51.580;5.170;2023-05-16T06:21:25;1999.90;;;999.90;;
47381;SDS011;33128;51.580;5.170;2023-05-16T06:23:51;1999.90;;;999.90;;
47381;SDS011;33128;51.580;5.170;2023-05-16T06:26:16;1999.90;;;999.90;;
47381;SDS011;33128;51.580;5.170;2023-05-16T06:28:42;1999.90;;;999.90;;
47381;SDS011;33128;51.580;5.170;2023-05-16T06:31:07;1999.90;;;999.90;;
47381;SDS011;33128;51.580;5.170;2023-05-16T06:33:34;1999.90;;;999.90;;
47381;SDS011;33128;51.580;5.170;2023-05-16T06:35:59;1999.90;;;999.90;;
47381;SDS011;33128;51.580;5.170;2023-05-16T06:38:31;1999.90;;;999.90;;
47381;SDS011;33128;51.580;5.170;2023-05-16T06:40:57;1999.90;;;999.90;;
47381;SDS011;33128;51.580;5.170;2023-05-16T06:43:22;1999.90;;;999.90;;
47381;SDS011;33128;51.580;5.170;2023-05-16T06:45:48;1999.90;;;999.90;;
47381;SDS011;33128;51.580;5.170;2023-05-16T06:48:14;1999.90;;;999.90;;
47381;SDS011;33128;51.580;5.170;2023-05-16T06:50:40;1999.90;;;999.90;;
47381;SDS011;33128;51.580;5.170;2023-05-16T06:53:06;1999.90;;;999.90;;
47381;SDS011;33128;51.580;5.170;2023-05-16T06:55:32;1999.90;;;999.90;;
47381;SDS011;33128;51.580;5.170;2023-05-16T06:57:58;1999.90;;;999.90;;
47381;SDS011;33128;51.580;5.170;2023-05-16T07:00:24;1999.90;;;999.90;;
47381;SDS011;33128;51.580;5.170;2023-05-16T07:02:50;1999.90;;;999.90;;
47381;SDS011;33128;51.580;5.170;2023-05-16T07:05:21;1999.90;;;999.90;;
47381;SDS011;33128;51.580;5.170;2023-05-16T07:07:47;1999.90;;;999.90;;
47381;SDS011;33128;51.580;5.170;2023-05-16T07:10:13;1999.90;;;999.90;;
47381;SDS011;33128;51.580;5.170;2023-05-16T07:12:40;1999.90;;;999.90;;
47381;SDS011;33128;51.580;5.170;2023-05-16T07:15:06;1999.90;;;999.90;;
47381;SDS011;33128;51.580;5.170;2023-05-16T07:17:33;1999.90;;;999.90;;
47381;SDS011;33128;51.580;5.170;2023-05-16T07:19:58;1999.90;;;999.90;;
47381;SDS011;33128;51.580;5.170;2023-05-16T07:22:24;1999.90;;;999.90;;
47381;SDS011;33128;51.580;5.170;2023-05-16T07:24:50;1999.90;;;999.90;;
47381;SDS011;33128;51.580;5.170;2023-05-16T07:27:18;1999.90;;;999.90;;
47381;SDS011;33128;51.580;5.170;2023-05-16T07:29:44;1999.90;;;999.90;;
47381;SDS011;33128;51.580;5.170;2023-05-16T07:32:10;1999.90;;;999.90;;
47381;SDS011;33128;51.580;5.170;2023-05-16T07:34:35;1999.90;;;999.90;;
47381;SDS011;33128;51.580;5.170;2023-05-16T07:37:01;1999.90;;;999.90;;
47381;SDS011;33128;51.580;5.170;2023-05-16T07:39:27;1999.90;;;999.90;;
47381;SDS011;33128;51.580;5.170;2023-05-16T07:41:53;1999.90;;;999.90;;
47381;SDS011;33128;51.580;5.170;2023-05-16T07:44:18;1999.90;;;999.90;;
47381;SDS011;33128;51.580;5.170;2023-05-16T07:46:44;1999.90;;;999.90;;
47381;SDS011;33128;51.580;5.170;2023-05-16T07:49:09;1999.90;;;999.90;;
47381;SDS011;33128;51.580;5.170;2023-05-16T07:51:35;1999.90;;;999.90;;
47381;SDS011;33128;51.580;5.170;2023-05-16T07:54:01;1999.90;;;999.90;;
47381;SDS011;33128;51.580;5.170;2023-05-16T07:56:27;1999.90;;;999.90;;
47381;SDS011;33128;51.580;5.170;2023-05-16T07:58:52;1999.90;;;999.90;;
47381;SDS011;33128;51.580;5.170;2023-05-16T08:01:21;1999.90;;;999.90;;
47381;SDS011;33128;51.580;5.170;2023-05-16T08:03:47;1999.90;;;999.90;;
47381;SDS011;33128;51.580;5.170;2023-05-16T08:06:13;1999.90;;;999.90;;
47381;SDS011;33128;51.580;5.170;2023-05-16T08:08:39;1999.90;;;999.90;;
47381;SDS011;33128;51.580;5.170;2023-05-16T08:11:04;1999.90;;;999.90;;
47381;SDS011;33128;51.580;5.170;2023-05-16T08:13:30;1999.90;;;999.90;;
47381;SDS011;33128;51.580;5.170;2023-05-16T08:15:55;1999.90;;;999.90;;
47381;SDS011;33128;51.580;5.170;2023-05-16T08:18:21;1999.90;;;999.90;;
47381;SDS011;33128;51.580;5.170;2023-05-16T08:20:47;1999.90;;;999.90;;
47381;SDS011;33128;51.580;5.170;2023-05-16T08:23:12;1999.90;;;999.90;;
47381;SDS011;33128;51.580;5.170;2023-05-16T08:25:38;1999.90;;;999.90;;
47381;SDS011;33128;51.580;5.170;2023-05-16T08:28:04;1999.90;;;999.90;;
47381;SDS011;33128;51.580;5.170;2023-05-16T08:30:30;1999.90;;;999.90;;
47381;SDS011;33128;51.580;5.170;2023-05-16T08:32:56;1999.90;;;999.90;;
47381;SDS011;33128;51.580;5.170;2023-05-16T08:35:21;1999.90;;;999.90;;
47381;SDS011;33128;51.580;5.170;2023-05-16T08:37:47;1999.90;;;999.90;;
47381;SDS011;33128;51.580;5.170;2023-05-16T08:40:13;1999.90;;;999.90;;
47381;SDS011;33128;51.580;5.170;2023-05-16T08:42:39;1999.90;;;999.90;;
47381;SDS011;33128;51.580;5.170;2023-05-16T08:45:05;1999.90;;;999.90;;
47381;SDS011;33128;51.580;5.170;2023-05-16T08:47:32;1999.90;;;999.90;;
47381;SDS011;33128;51.580;5.170;2023-05-16T08:50:01;1999.90;;;999.90;;
47381;SDS011;33128;51.580;5.170;2023-05-16T08:52:28;1999.90;;;999.90;;
47381;SDS011;33128;51.580;5.170;2023-05-16T08:54:58;344.63;;;147.57;;
47381;SDS011;33128;51.580;5.170;2023-05-16T08:57:29;378.70;;;185.40;;
47381;SDS011;33128;51.580;5.170;2023-05-16T09:02:22;318.73;;;98.15;;
47381;SDS011;33128;51.580;5.170;2023-05-16T09:07:18;250.68;;;87.53;;
47381;SDS011;33128;51.580;5.170;2023-05-16T09:48:58;279.88;;;96.18;;
47381;SDS011;33128;51.580;5.170;2023-05-16T09:53:50;141.88;;;65.47;;
47381;SDS011;33128;51.580;5.170;2023-05-16T11:28:15;156.90;;;139.90;;
47381;SDS011;33128;51.580;5.170;2023-05-16T11:45:45;1999.90;;;999.90;;
47381;SDS011;33128;51.580;5.170;2023-05-16T11:48:17;1999.90;;;999.90;;
47381;SDS011;33128;51.580;5.170;2023-05-16T13:23:28;605.58;;;341.27;;
47381;SDS011;33128;51.580;5.170;2023-05-16T13:25:59;386.92;;;286.80;;
47381;SDS011;33128;51.580;5.170;2023-05-16T13:28:25;594.10;;;320.13;;
47381;SDS011;33128;51.580;5.170;2023-05-16T13:30:51;580.95;;;345.05;;
47381;SDS011;33128;51.580;5.170;2023-05-16T13:33:16;541.70;;;289.25;;
47381;SDS011;33128;51.580;5.170;2023-05-16T13:35:46;438.85;;;311.27;;
47381;SDS011;33128;51.580;5.170;2023-05-16T13:38:12;555.15;;;308.65;;
47381;SDS011;33128;51.580;5.170;2023-05-16T13:40:38;598.63;;;365.30;;
47381;SDS011;33128;51.580;5.170;2023-05-16T13:43:03;486.63;;;449.05;;
47381;SDS011;33128;51.580;5.170;2023-05-16T13:45:30;859.53;;;372.52;;
47381;SDS011;33128;51.580;5.170;2023-05-16T13:47:56;602.95;;;320.73;;
47381;SDS011;33128;51.580;5.170;2023-05-16T13:50:24;537.45;;;274.65;;
47381;SDS011;33128;51.580;5.170;2023-05-16T13:52:50;680.60;;;351.73;;
47381;SDS011;33128;51.580;5.170;2023-05-16T13:55:16;396.45;;;262.15;;
47381;SDS011;33128;51.580;5.170;2023-05-16T13:57:42;639.63;;;374.52;;
47381;SDS011;33128;51.580;5.170;2023-05-16T14:00:08;593.13;;;373.80;;
47381;SDS011;33128;51.580;5.170;2023-05-16T14:02:38;585.53;;;536.63;;
47381;SDS011;33128;51.580;5.170;2023-05-16T14:05:04;458.25;;;414.50;;
47381;SDS011;33128;51.580;5.170;2023-05-16T14:07:30;614.75;;;556.83;;
47381;SDS011;33128;51.580;5.170;2023-05-16T14:09:56;560.10;;;392.17;;
47381;SDS011;33128;51.580;5.170;2023-05-16T14:12:22;817.88;;;672.75;;
47381;SDS011;33128;51.580;5.170;2023-05-16T14:14:47;1942.20;;;976.45;;
47381;SDS011;33128;51.580;5.170;2023-05-16T14:17:13;1988.25;;;977.38;;
47381;SDS011;33128;51.580;5.170;2023-05-16T14:19:38;761.25;;;697.45;;
47381;SDS011;33128;51.580;5.170;2023-05-16T14:22:04;529.78;;;476.38;;
47381;SDS011;33128;51.580;5.170;2023-05-16T14:24:30;587.63;;;543.63;;
47381;SDS011;33128;51.580;5.170;2023-05-16T14:26:55;570.80;;;535.90;;
47381;SDS011;33128;51.580;5.170;2023-05-16T14:29:21;686.47;;;340.15;;
47381;SDS011;33128;51.580;5.170;2023-05-16T14:31:47;538.70;;;425.65;;
47381;SDS011;33128;51.580;5.170;2023-05-16T14:34:13;1999.90;;;999.90;;
47381;SDS011;33128;51.580;5.170;2023-05-16T14:36:38;1999.90;;;999.90;;
47381;SDS011;33128;51.580;5.170;2023-05-16T14:39:04;1999.90;;;999.90;;
47381;SDS011;33128;51.580;5.170;2023-05-16T14:41:29;1999.90;;;999.90;;
47381;SDS011;33128;51.580;5.170;2023-05-16T14:43:55;1999.90;;;999.90;;
47381;SDS011;33128;51.580;5.170;2023-05-16T14:46:21;1999.90;;;999.90;;
47381;SDS011;33128;51.580;5.170;2023-05-16T14:48:46;1999.90;;;999.90;;
47381;SDS011;33128;51.580;5.170;2023-05-16T14:51:12;1999.90;;;999.90;;
47381;SDS011;33128;51.580;5.170;2023-05-16T14:53:37;1999.90;;;999.90;;
47381;SDS011;33128;51.580;5.170;2023-05-16T14:56:03;1999.90;;;999.90;;
47381;SDS011;33128;51.580;5.170;2023-05-16T14:58:29;1999.90;;;999.90;;
47381;SDS011;33128;51.580;5.170;2023-05-16T15:00:55;1999.90;;;999.90;;
47381;SDS011;33128;51.580;5.170;2023-05-16T15:03:20;1999.90;;;999.90;;
47381;SDS011;33128;51.580;5.170;2023-05-16T15:05:46;1999.90;;;999.90;;
47381;SDS011;33128;51.580;5.170;2023-05-16T15:08:12;1999.90;;;999.90;;
47381;SDS011;33128;51.580;5.170;2023-05-16T15:10:38;1999.90;;;999.90;;
47381;SDS011;33128;51.580;5.170;2023-05-16T15:13:03;1999.90;;;999.90;;
47381;SDS011;33128;51.580;5.170;2023-05-16T15:15:29;214.02;;;82.30;;
47381;SDS011;33128;51.580;5.170;2023-05-16T17:12:24;1999.90;;;999.90;;
47381;SDS011;33128;51.580;5.170;2023-05-16T17:14:52;1999.90;;;999.90;;
47381;SDS011;33128;51.580;5.170;2023-05-16T17:17:18;1999.90;;;999.90;;
47381;SDS011;33128;51.580;5.170;2023-05-16T17:19:51;1999.90;;;999.90;;
47381;SDS011;33128;51.580;5.170;2023-05-16T17:22:17;1999.90;;;999.90;;
47381;SDS011;33128;51.580;5.170;2023-05-16T17:24:45;1999.90;;;999.90;;
47381;SDS011;33128;51.580;5.170;2023-05-16T17:27:11;1999.90;;;999.90;;
47381;SDS011;33128;51.580;5.170;2023-05-16T17:29:37;1999.90;;;999.90;;
47381;SDS011;33128;51.580;5.170;2023-05-16T17:32:03;1999.90;;;999.90;;
47381;SDS011;33128;51.580;5.170;2023-05-16T17:34:30;1999.90;;;999.90;;
47381;SDS011;33128;51.580;5.170;2023-05-16T17:36:57;1999.90;;;999.90;;
47381;SDS011;33128;51.580;5.170;2023-05-16T17:39:23;1999.90;;;999.90;;
47381;SDS011;33128;51.580;5.170;2023-05-16T17:41:48;1999.90;;;999.90;;
47381;SDS011;33128;51.580;5.170;2023-05-16T17:44:14;1999.90;;;999.90;;
47381;SDS011;33128;51.580;5.170;2023-05-16T17:46:40;1999.90;;;999.90;;
47381;SDS011;33128;51.580;5.170;2023-05-16T17:49:09;1999.90;;;999.90;;
47381;SDS011;33128;51.580;5.170;2023-05-16T17:51:56;1999.90;;;999.90;;
47381;SDS011;33128;51.580;5.170;2023-05-16T17:54:24;1999.90;;;999.90;;
47381;SDS011;33128;51.580;5.170;2023-05-16T17:56:54;1999.90;;;999.90;;
47381;SDS011;33128;51.580;5.170;2023-05-16T17:59:20;1999.90;;;999.90;;
47381;SDS011;33128;51.580;5.170;2023-05-16T18:01:46;1999.90;;;999.90;;
47381;SDS011;33128;51.580;5.170;2023-05-16T18:04:12;1999.90;;;999.90;;
47381;SDS011;33128;51.580;5.170;2023-05-16T18:06:38;1999.90;;;999.90;;
47381;SDS011;33128;51.580;5.170;2023-05-16T18:09:08;1999.90;;;999.90;;
47381;SDS011;33128;51.580;5.170;2023-05-16T18:11:37;1999.90;;;999.90;;
47381;SDS011;33128;51.580;5.170;2023-05-16T18:14:06;1999.90;;;999.90;;
47381;SDS011;33128;51.580;5.170;2023-05-16T18:16:38;1999.90;;;999.90;;
47381;SDS011;33128;51.580;5.170;2023-05-16T18:19:04;1999.90;;;999.90;;
47381;SDS011;33128;51.580;5.170;2023-05-16T18:21:30;1999.90;;;999.90;;
47381;SDS011;33128;51.580;5.170;2023-05-16T18:23:56;1999.90;;;999.90;;
47381;SDS011;33128;51.580;5.170;2023-05-16T18:26:23;1999.90;;;999.90;;
47381;SDS011;33128;51.580;5.170;2023-05-16T18:28:50;1999.90;;;999.90;;
47381;SDS011;33128;51.580;5.170;2023-05-16T18:31:15;1999.90;;;999.90;;
47381;SDS011;33128;51.580;5.170;2023-05-16T18:33:41;1999.90;;;999.90;;
47381;SDS011;33128;51.580;5.170;2023-05-16T18:36:06;1999.90;;;999.90;;
47381;SDS011;33128;51.580;5.170;2023-05-16T18:38:32;1999.90;;;999.90;;
47381;SDS011;33128;51.580;5.170;2023-05-16T18:40:58;1999.90;;;999.90;;
47381;SDS011;33128;51.580;5.170;2023-05-16T18:43:23;1999.90;;;999.90;;
47381;SDS011;33128;51.580;5.170;2023-05-16T18:45:52;1999.90;;;999.90;;
47381;SDS011;33128;51.580;5.170;2023-05-16T18:48:17;1999.90;;;999.90;;
47381;SDS011;33128;51.580;5.170;2023-05-16T18:50:43;1999.90;;;999.90;;
47381;SDS011;33128;51.580;5.170;2023-05-16T18:53:08;1999.90;;;999.90;;
47381;SDS011;33128;51.580;5.170;2023-05-16T18:55:34;1999.90;;;999.90;;
47381;SDS011;33128;51.580;5.170;2023-05-16T18:58:00;1999.90;;;999.90;;
47381;SDS011;33128;51.580;5.170;2023-05-16T19:00:26;1999.90;;;999.90;;
47381;SDS011;33128;51.580;5.170;2023-05-16T19:02:52;1999.90;;;999.90;;
47381;SDS011;33128;51.580;5.170;2023-05-16T19:05:17;1999.90;;;999.90;;
47381;SDS011;33128;51.580;5.170;2023-05-16T19:07:43;1999.90;;;999.90;;
47381;SDS011;33128;51.580;5.170;2023-05-16T19:10:09;1999.90;;;999.90;;
47381;SDS011;33128;51.580;5.170;2023-05-16T19:12:35;1999.90;;;999.90;;
47381;SDS011;33128;51.580;5.170;2023-05-16T19:15:01;1999.90;;;999.90;;
47381;SDS011;33128;51.580;5.170;2023-05-16T19:17:30;1999.90;;;999.90;;
47381;SDS011;33128;51.580;5.170;2023-05-16T19:19:58;1999.90;;;999.90;;
47381;SDS011;33128;51.580;5.170;2023-05-16T19:22:24;1999.90;;;999.90;;
47381;SDS011;33128;51.580;5.170;2023-05-16T19:24:49;1999.90;;;999.90;;
47381;SDS011;33128;51.580;5.170;2023-05-16T19:27:15;1999.90;;;999.90;;
47381;SDS011;33128;51.580;5.170;2023-05-16T19:29:41;1999.90;;;999.90;;
47381;SDS011;33128;51.580;5.170;2023-05-16T19:32:06;1999.90;;;999.90;;
47381;SDS011;33128;51.580;5.170;2023-05-16T19:34:32;1999.90;;;999.90;;
47381;SDS011;33128;51.580;5.170;2023-05-16T19:36:57;1999.90;;;999.90;;
47381;SDS011;33128;51.580;5.170;2023-05-16T19:39:27;1999.90;;;999.90;;
47381;SDS011;33128;51.580;5.170;2023-05-16T19:41:53;1999.90;;;999.90;;
47381;SDS011;33128;51.580;5.170;2023-05-16T19:44:19;1999.90;;;999.90;;
47381;SDS011;33128;51.580;5.170;2023-05-16T19:46:45;1999.90;;;999.90;;
47381;SDS011;33128;51.580;5.170;2023-05-16T19:49:10;1999.90;;;999.90;;
47381;SDS011;33128;51.580;5.170;2023-05-16T19:51:40;1999.90;;;999.90;;
47381;SDS011;33128;51.580;5.170;2023-05-16T19:54:06;1999.90;;;999.90;;